.
WxDataArchive / Data Records for 2012-04-01
2012-03-31 April 2012 2012-04-02

Data Records for Sunday, 01 April 2012

Time	Temp	Chill	HIndex	Humid	Dewpt	 Wind 	HiWind	WindDir	Rain 	Barom 
-----	----	-----	------	-----	-----	------	------	-------	-----	----- 
00:00	40.6	40.6	40.6	82	35.5	0	1	112	0.00	29.928 
00:05	40.5	40.5	40.5	82	35.4	0	2	112	0.00	29.928 
00:10	40.3	40.3	40.3	82	35.2	0	2	112	0.00	29.928 
00:15	40.3	40.3	40.3	83	35.6	0	1	112	0.00	29.919 
00:20	40.3	40.3	40.3	83	35.6	0	1	112	0.00	29.919 
00:25	40.2	40.2	40.2	83	35.5	0	1	112	0.00	29.919 
00:30	40.2	40.2	40.2	83	35.5	0	1	112	0.00	29.925 
00:35	40.2	40.2	40.2	83	35.5	0	0	---	0.00	29.925 
00:40	40.2	40.2	40.2	83	35.5	0	0	---	0.00	29.925 
00:45	40.2	40.2	40.2	83	35.5	0	1	112	0.00	29.922 
00:50	40.1	40.1	40.1	84	35.7	0	0	---	0.00	29.922 
00:55	40.1	40.1	40.1	84	35.7	0	0	---	0.00	29.922 
01:00	39.9	39.9	39.9	84	35.5	0	0	---	0.00	29.912 
01:05	39.6	39.6	39.6	84	35.2	0	1	112	0.00	29.912 
01:10	39.6	39.6	39.6	84	35.2	0	1	112	0.00	29.912 
01:15	39.5	39.5	39.5	84	35.1	0	1	112	0.00	29.904 
01:20	39.3	39.3	39.3	85	35.2	0	1	112	0.00	29.904 
01:25	39.2	39.2	39.2	85	35.1	0	1	112	0.00	29.904 
01:30	39.2	39.2	39.2	85	35.1	0	2	112	0.00	29.898 
01:35	39.1	39.1	39.1	85	35.0	0	2	112	0.00	29.898 
01:40	39.1	39.1	39.1	85	35.0	0	1	112	0.00	29.898 
01:45	39.1	39.1	39.1	86	35.3	0	1	112	0.00	29.892 
01:50	38.9	38.9	38.9	86	35.1	0	1	112	0.00	29.892 
01:55	38.8	38.8	38.8	86	35.0	0	0	---	0.00	29.892 
02:00	38.6	38.6	38.6	86	34.8	0	2	112	0.00	29.883 
02:05	38.5	38.5	38.5	86	34.7	0	0	---	0.00	29.883 
02:10	38.5	38.5	38.5	87	35.0	0	1	112	0.00	29.883 
02:15	38.3	38.3	38.3	87	34.8	0	1	112	0.00	29.880 
02:20	38.2	38.2	38.2	87	34.7	0	1	112	0.00	29.880 
02:25	38.2	38.2	38.2	87	34.7	0	1	112	0.00	29.880 
02:30	38.0	38.0	38.0	87	34.5	0	0	---	0.00	29.878 
02:35	38.0	38.0	38.0	88	34.8	0	0	---	0.00	29.878 
02:40	38.0	38.0	38.0	88	34.8	0	0	---	0.00	29.878 
02:45	37.9	37.9	37.9	88	34.7	0	0	---	0.00	29.874 
02:50	37.9	37.9	37.9	88	34.7	0	0	---	0.00	29.874 
02:55	37.9	37.9	37.9	88	34.7	0	0	---	0.00	29.874 
03:00	37.9	37.9	37.9	88	34.7	0	1	112	0.00	29.870 
03:05	37.8	37.8	37.8	88	34.6	0	0	---	0.00	29.870 
03:10	37.8	37.8	37.8	89	34.9	0	1	112	0.00	29.870 
03:15	37.8	37.8	37.8	89	34.9	0	0	---	0.00	29.867 
03:20	37.9	37.9	37.9	89	35.0	0	0	---	0.00	29.867 
03:25	38.0	38.0	38.0	89	35.1	0	1	112	0.00	29.867 
03:30	38.0	38.0	38.0	89	35.1	0	0	---	0.00	29.866 
03:35	38.2	38.2	38.2	89	35.2	0	0	---	0.00	29.866 
03:40	38.2	38.2	38.2	89	35.2	0	0	---	0.00	29.866 
03:45	38.2	38.2	38.2	89	35.2	0	0	---	0.00	29.863 
03:50	38.0	38.0	38.0	89	35.1	0	1	112	0.00	29.863 
03:55	38.0	38.0	38.0	89	35.1	0	0	---	0.00	29.863 
04:00	37.9	37.9	37.9	89	35.0	0	0	---	0.00	29.851 
04:05	37.8	37.8	37.8	89	34.9	0	0	---	0.00	29.851 
04:10	37.8	37.8	37.8	90	35.1	0	1	112	0.00	29.851 
04:15	37.9	37.9	37.9	90	35.2	0	1	112	0.00	29.844 
04:20	38.0	38.0	38.0	90	35.3	0	1	112	0.00	29.844 
04:25	38.2	38.2	38.2	90	35.5	0	0	---	0.00	29.844 
04:30	38.3	38.3	38.3	90	35.6	0	1	112	0.00	29.849 
04:35	38.5	38.5	38.5	90	35.8	0	0	---	0.00	29.849 
04:40	38.6	38.6	38.6	90	35.9	0	0	---	0.00	29.849 
04:45	38.6	38.6	38.6	90	35.9	0	0	---	0.00	29.851 
04:50	38.8	38.8	38.8	90	36.1	0	0	---	0.00	29.851 
04:55	38.8	38.8	38.8	90	36.1	0	1	112	0.00	29.851 
05:00	38.9	38.9	38.9	90	36.2	0	1	112	0.00	29.850 
05:05	39.1	39.1	39.1	90	36.4	0	2	112	0.00	29.850 
05:10	39.1	39.1	39.1	90	36.4	1	3	112	0.00	29.850 
05:15	39.1	39.1	39.1	90	36.4	0	3	112	0.00	29.835 
05:20	39.1	39.1	39.1	90	36.4	0	1	112	0.00	29.835 
05:25	39.1	39.1	39.1	90	36.4	0	1	112	0.00	29.835 
05:30	39.1	39.1	39.1	90	36.4	0	1	112	0.00	29.832 
05:35	39.1	39.1	39.1	90	36.4	0	1	112	0.00	29.832 
05:40	39.1	39.1	39.1	90	36.4	0	1	112	0.00	29.832 
05:45	39.1	39.1	39.1	90	36.4	0	2	112	0.00	29.821 
05:50	39.1	39.1	39.1	90	36.4	0	2	112	0.00	29.821 
05:55	39.2	39.2	39.2	90	36.5	0	2	112	0.00	29.821 
06:00	39.2	39.2	39.2	90	36.5	0	2	112	0.00	29.815 
06:05	39.3	39.3	39.3	90	36.6	0	1	112	0.00	29.815 
06:10	39.3	39.3	39.3	90	36.6	0	2	112	0.00	29.815 
06:15	39.5	39.5	39.5	90	36.8	0	0	---	0.00	29.824 
06:20	39.5	39.5	39.5	90	36.8	0	2	112	0.00	29.824 
06:25	39.6	39.6	39.6	91	37.2	1	3	112	0.00	29.824 
06:30	39.8	39.8	39.8	91	37.4	0	2	112	0.00	29.835 
06:35	39.9	39.9	39.9	90	37.2	0	2	112	0.00	29.835 
06:40	39.9	39.9	39.9	90	37.2	0	2	112	0.00	29.835 
06:45	39.8	39.8	39.8	90	37.1	0	3	112	0.00	29.829 
06:50	39.8	39.8	39.8	90	37.1	0	2	112	0.00	29.829 
06:55	39.8	39.8	39.8	90	37.1	0	2	112	0.00	29.829 
07:00	39.8	39.8	39.8	90	37.1	0	2	112	0.00	29.817 
07:05	39.8	39.8	39.8	90	37.1	0	1	112	0.00	29.817 
07:10	39.8	39.8	39.8	90	37.1	0	2	112	0.00	29.817 
07:15	39.8	39.8	39.8	91	37.4	0	1	112	0.00	29.816 
07:20	39.9	39.9	39.9	91	37.5	0	2	112	0.00	29.816 
07:25	40.1	40.1	40.1	91	37.7	0	1	112	0.00	29.816 
07:30	40.2	40.2	40.2	91	37.8	0	2	112	0.00	29.811 
07:35	40.3	40.3	40.3	91	37.9	0	2	112	0.00	29.811 
07:40	40.3	40.3	40.3	91	37.9	0	0	---	0.00	29.811 
07:45	40.5	40.5	40.5	91	38.1	0	2	112	0.00	29.815 
07:50	40.6	40.6	40.6	91	38.2	1	3	112	0.00	29.815 
07:55	40.8	40.8	40.8	91	38.4	0	2	135	0.00	29.815 
08:00	40.9	40.9	40.9	91	38.5	0	2	135	0.00	29.805 
08:05	41.1	41.1	41.1	91	38.7	0	3	135	0.00	29.805 
08:10	41.2	41.2	41.2	91	38.8	0	3	112	0.00	29.805 
08:15	41.3	41.3	41.3	91	38.9	0	2	112	0.00	29.803 
08:20	41.5	41.5	41.5	91	39.1	0	2	112	0.00	29.803 
08:25	41.8	41.8	41.8	91	39.4	0	2	112	0.00	29.803 
08:30	42.1	42.1	42.1	91	39.7	0	2	248	0.00	29.801 
08:35	42.3	42.3	42.3	91	39.9	0	1	248	0.00	29.801 
08:40	42.8	42.8	42.8	91	40.4	0	4	112	0.00	29.801 
08:45	43.1	43.1	43.1	91	40.7	0	2	112	0.00	29.791 
08:50	43.3	43.3	43.3	90	40.6	1	5	338	0.00	29.791 
08:55	43.5	43.5	43.5	89	40.5	1	4	112	0.00	29.791 
09:00	43.9	43.9	43.9	89	40.9	0	2	112	0.00	29.778 
09:05	44.2	44.2	44.2	89	41.2	1	5	90	0.00	29.778 
09:10	44.5	44.5	44.5	88	41.2	1	3	90	0.00	29.778 
09:15	44.8	44.8	44.8	88	41.5	1	4	90	0.00	29.762 
09:20	45.1	45.1	45.1	88	41.8	0	5	292	0.00	29.762 
09:25	45.5	45.5	45.5	88	42.2	1	3	315	0.00	29.762 
09:30	45.8	45.8	45.8	87	42.2	1	4	292	0.00	29.776 
09:35	46.2	46.2	46.2	86	42.2	1	3	292	0.00	29.776 
09:40	46.8	46.8	46.8	86	42.8	1	4	270	0.00	29.776 
09:45	47.1	47.1	47.1	84	42.5	1	6	248	0.00	29.762 
09:50	47.6	47.6	47.6	84	43.0	1	4	248	0.00	29.762 
09:55	48.2	48.2	48.2	83	43.3	1	4	248	0.00	29.762 
10:00	48.6	48.6	48.6	83	43.7	1	4	248	0.00	29.760 
10:05	49.4	49.4	49.4	82	44.1	1	4	248	0.00	29.760 
10:10	50.1	50.1	50.1	81	44.5	1	3	248	0.00	29.760 
10:15	50.8	50.8	50.8	81	45.2	1	4	248	0.00	29.748 
10:20	51.6	51.6	51.6	78	45.0	1	3	248	0.00	29.748 
10:25	52.3	52.3	52.3	77	45.3	1	3	248	0.00	29.748 
10:30	52.9	52.9	52.9	76	45.5	1	2	225	0.00	29.745 
10:35	53.5	53.5	53.5	75	45.8	1	4	270	0.00	29.745 
10:40	53.8	53.8	53.8	73	45.3	1	6	270	0.00	29.745 
10:45	54.1	54.1	54.1	74	46.0	2	5	248	0.00	29.740 
10:50	54.7	54.7	54.7	73	46.2	1	4	248	0.00	29.740 
10:55	54.8	54.8	54.8	72	45.9	1	4	248	0.00	29.740 
11:00	55.0	55.0	55.0	73	46.5	1	4	248	0.00	29.729 
11:05	55.3	55.3	55.3	74	47.2	1	3	248	0.00	29.729 
11:10	56.0	56.0	56.0	74	47.8	1	2	248	0.00	29.729 
11:15	56.7	56.7	56.7	72	47.8	2	6	248	0.00	29.726 
11:20	57.3	57.3	57.3	71	48.0	2	5	248	0.00	29.726 
11:25	57.6	57.6	57.6	70	47.9	3	5	248	0.00	29.726 
11:30	58.1	58.1	58.1	71	48.7	1	4	225	0.00	29.723 
11:35	58.6	58.6	58.6	71	49.2	1	5	248	0.00	29.723 
11:40	59.2	59.2	59.2	69	49.0	1	4	270	0.00	29.723 
11:45	59.6	59.6	59.6	69	49.4	2	4	248	0.00	29.721 
11:50	60.2	60.2	60.2	68	49.6	2	5	248	0.00	29.721 
11:55	60.5	60.5	60.5	68	49.9	1	4	248	0.00	29.721 
12:00	61.2	61.2	61.2	66	49.7	2	4	248	0.00	29.710 
12:05	61.3	61.3	61.3	66	49.8	2	6	248	0.00	29.710 
12:10	61.6	61.6	61.6	66	50.1	2	4	248	0.00	29.710 
12:15	62.0	62.0	62.0	65	50.1	2	6	248	0.00	29.704 
12:20	62.1	62.1	62.1	67	51.0	2	4	248	0.00	29.704 
12:25	62.6	62.6	62.6	65	50.7	2	3	248	0.00	29.704 
12:30	62.7	62.7	62.7	65	50.8	3	5	248	0.00	29.705 
12:35	63.2	63.2	63.2	66	51.6	2	4	270	0.00	29.705 
12:40	63.7	63.7	63.7	65	51.7	2	5	270	0.00	29.705 
12:45	64.2	64.2	64.2	65	52.2	1	4	248	0.00	29.713 
12:50	64.7	64.7	64.7	64	52.2	2	4	248	0.00	29.713 
12:55	65.0	65.0	65.0	65	52.9	1	5	248	0.00	29.713 
13:00	64.8	64.8	64.8	63	51.9	3	5	292	0.00	29.703 
13:05	64.8	64.8	64.8	65	52.8	2	5	248	0.00	29.703 
13:10	64.8	64.8	64.8	64	52.3	2	4	292	0.00	29.703 
13:15	65.6	65.6	65.6	66	53.9	1	4	292	0.00	29.700 
13:20	66.0	66.0	66.0	63	53.0	2	5	315	0.00	29.700 
13:25	66.0	66.0	66.0	64	53.5	2	6	292	0.00	29.700 
13:30	66.0	66.0	66.0	64	53.5	2	4	292	0.00	29.689 
13:35	66.1	66.1	66.1	65	54.0	1	4	292	0.00	29.689 
13:40	66.6	66.6	66.6	64	54.0	1	3	315	0.00	29.689 
13:45	66.8	66.8	66.8	64	54.2	1	4	292	0.00	29.679 
13:50	67.1	67.1	67.1	63	54.1	1	3	338	0.00	29.679 
13:55	67.4	67.4	67.4	62	53.9	1	3	338	0.00	29.679 
14:00	67.4	67.4	67.4	62	53.9	1	3	292	0.00	29.676 
14:05	67.6	67.6	67.6	62	54.1	1	3	338	0.00	29.676 
14:10	68.1	68.1	68.1	60	53.7	2	5	248	0.00	29.676 
14:15	68.3	68.3	68.3	60	53.9	1	3	292	0.00	29.672 
14:20	68.6	68.6	68.6	61	54.6	1	4	292	0.00	29.672 
14:25	68.8	68.8	68.8	59	53.9	1	4	292	0.00	29.672 
14:30	68.9	68.9	68.9	60	54.4	1	5	315	0.00	29.668 
14:35	69.4	69.4	69.4	60	54.9	0	2	270	0.00	29.668 
14:40	69.6	69.6	69.6	57	53.7	1	3	315	0.00	29.668 
14:45	69.3	69.3	69.3	59	54.3	2	6	292	0.00	29.665 
14:50	68.9	68.9	68.9	58	53.5	2	4	270	0.00	29.665 
14:55	68.8	68.8	68.8	59	53.9	0	3	292	0.00	29.665 
15:00	69.3	69.3	69.3	60	54.8	2	5	315	0.00	29.659 
15:05	69.6	69.6	69.6	58	54.2	1	4	292	0.00	29.659 
15:10	69.9	69.9	69.9	58	54.4	1	6	0	0.00	29.659 
15:15	69.9	69.9	69.9	59	54.9	1	3	338	0.00	29.650 
15:20	70.1	70.1	70.1	58	54.6	0	2	338	0.00	29.650 
15:25	69.8	69.8	69.8	57	53.9	1	3	315	0.00	29.650 
15:30	69.3	69.3	69.3	58	53.9	1	4	292	0.00	29.654 
15:35	69.1	69.1	69.1	58	53.7	0	2	45	0.00	29.654 
15:40	68.9	68.9	68.9	58	53.5	1	3	315	0.00	29.654 
15:45	68.9	68.9	68.9	58	53.5	1	3	270	0.00	29.653 
15:50	68.9	68.9	68.9	58	53.5	0	3	292	0.00	29.653 
15:55	68.9	68.9	68.9	59	54.0	0	2	292	0.00	29.653 
16:00	68.6	68.6	68.6	58	53.2	0	2	338	0.00	29.652 
16:05	68.6	68.6	68.6	59	53.7	0	2	338	0.00	29.652 
16:10	68.6	68.6	68.6	58	53.2	0	2	338	0.00	29.652 
16:15	68.6	68.6	68.6	59	53.7	0	1	338	0.00	29.648 
16:20	68.6	68.6	68.6	60	54.1	0	1	338	0.00	29.648 
16:25	68.6	68.6	68.6	59	53.7	0	1	338	0.00	29.648 
16:30	68.4	68.4	68.4	59	53.5	0	1	338	0.00	29.651 
16:35	68.3	68.3	68.3	60	53.9	0	1	338	0.00	29.651 
16:40	67.9	67.9	67.9	60	53.5	0	2	338	0.00	29.651 
16:45	67.8	67.8	67.8	60	53.4	0	2	338	0.00	29.652 
16:50	67.6	67.6	67.6	60	53.2	0	2	338	0.00	29.652 
16:55	67.4	67.4	67.4	61	53.5	0	2	338	0.00	29.652 
17:00	67.1	67.1	67.1	61	53.2	0	2	338	0.00	29.660 
17:05	66.9	66.9	66.9	62	53.4	0	4	248	0.00	29.660 
17:10	66.8	66.8	66.8	62	53.4	0	3	248	0.00	29.660 
17:15	66.6	66.6	66.6	62	53.2	0	2	248	0.00	29.661 
17:20	66.6	66.6	66.6	63	53.6	0	1	248	0.00	29.661 
17:25	66.8	66.8	66.8	63	53.8	0	1	248	0.00	29.661 
17:30	66.9	66.9	66.9	64	54.3	0	1	248	0.00	29.657 
17:35	67.3	67.3	67.3	62	53.8	0	3	248	0.00	29.657 
17:40	67.4	67.4	67.4	61	53.5	1	3	90	0.00	29.657 
17:45	67.6	67.6	67.6	62	54.1	0	0	---	0.00	29.653 
17:50	67.8	67.8	67.8	61	53.9	0	1	90	0.00	29.653 
17:55	67.8	67.8	67.8	61	53.9	0	2	90	0.00	29.653 
18:00	67.8	67.8	67.8	61	53.9	0	1	90	0.00	29.653 
18:05	67.8	67.8	67.8	61	53.9	0	1	90	0.00	29.653 
18:10	67.8	67.8	67.8	62	54.3	0	2	90	0.00	29.653 
18:15	67.6	67.6	67.6	62	54.1	0	1	90	0.00	29.653 
18:20	67.6	67.6	67.6	62	54.1	0	2	90	0.00	29.653 
18:25	67.4	67.4	67.4	62	53.9	0	1	90	0.00	29.653 
18:30	67.1	67.1	67.1	62	53.6	0	3	90	0.00	29.662 
18:35	66.9	66.9	66.9	62	53.4	0	2	90	0.00	29.662 
18:40	66.8	66.8	66.8	62	53.4	0	2	90	0.00	29.662 
18:45	66.3	66.3	66.3	62	52.9	0	2	90	0.00	29.666 
18:50	66.1	66.1	66.1	62	52.7	0	4	135	0.00	29.666 
18:55	65.8	65.8	65.8	62	52.4	0	4	68	0.00	29.666 
19:00	65.6	65.6	65.6	63	52.7	0	1	68	0.00	29.669 
19:05	65.3	65.3	65.3	63	52.4	0	1	68	0.00	29.669 
19:10	65.2	65.2	65.2	63	52.3	0	1	68	0.00	29.669 
19:15	65.0	65.0	65.0	63	52.1	0	1	68	0.00	29.683 
19:20	64.7	64.7	64.7	63	51.8	0	1	68	0.00	29.683 
19:25	64.5	64.5	64.5	64	52.0	0	1	68	0.00	29.683 
19:30	64.3	64.3	64.3	64	51.9	0	2	68	0.00	29.689 
19:35	64.0	64.0	64.0	65	52.0	0	0	---	0.00	29.689 
19:40	63.9	63.9	63.9	64	51.5	0	2	68	0.00	29.689 
19:45	63.5	63.5	63.5	65	51.5	0	2	22	0.00	29.698 
19:50	63.2	63.2	63.2	65	51.2	0	1	22	0.00	29.698 
19:55	62.9	62.9	62.9	65	50.9	0	0	---	0.00	29.698 
20:00	62.7	62.7	62.7	66	51.2	0	1	22	0.00	29.704 
20:05	62.6	62.6	62.6	66	51.1	0	1	22	0.00	29.704 
20:10	62.4	62.4	62.4	67	51.3	0	1	22	0.00	29.704 
20:15	62.3	62.3	62.3	67	51.2	0	2	22	0.00	29.714 
20:20	62.0	62.0	62.0	66	50.5	1	4	112	0.00	29.714 
20:25	61.8	61.8	61.8	66	50.3	1	5	90	0.00	29.714 
20:30	61.6	61.6	61.6	67	50.5	1	5	135	0.00	29.719 
20:35	61.3	61.3	61.3	67	50.2	0	3	90	0.00	29.719 
20:40	61.2	61.2	61.2	68	50.5	1	4	90	0.00	29.719 
20:45	60.9	60.9	60.9	68	50.3	0	3	135	0.00	29.720 
20:50	60.7	60.7	60.7	68	50.1	0	3	68	0.00	29.720 
20:55	60.5	60.5	60.5	68	49.9	0	3	68	0.00	29.720 
21:00	60.4	60.4	60.4	68	49.8	0	3	90	0.00	29.719 
21:05	60.2	60.2	60.2	68	49.6	0	1	90	0.00	29.719 
21:10	59.9	59.9	59.9	69	49.7	0	1	90	0.00	29.719 
21:15	59.6	59.6	59.6	69	49.4	0	2	90	0.00	29.716 
21:20	59.5	59.5	59.5	69	49.3	0	1	90	0.00	29.716 
21:25	59.2	59.2	59.2	70	49.4	0	0	---	0.00	29.716 
21:30	59.0	59.0	59.0	71	49.6	0	1	90	0.00	29.733 
21:35	58.9	58.9	58.9	72	49.9	0	1	90	0.00	29.733 
21:40	58.9	58.9	58.9	71	49.5	0	5	90	0.00	29.733 
21:45	58.9	58.9	58.9	71	49.5	0	2	90	0.00	29.744 
21:50	58.7	58.7	58.7	71	49.3	1	4	112	0.00	29.744 
21:55	58.7	58.7	58.7	71	49.3	0	1	112	0.00	29.744 
22:00	58.6	58.6	58.6	71	49.2	1	4	112	0.00	29.731 
22:05	58.4	58.4	58.4	72	49.4	0	1	112	0.00	29.731 
22:10	58.1	58.1	58.1	72	49.1	0	3	112	0.00	29.731 
22:15	57.8	57.8	57.8	73	49.2	0	2	112	0.00	29.742 
22:20	57.5	57.5	57.5	73	48.9	0	1	112	0.00	29.742 
22:25	57.2	57.2	57.2	74	49.0	0	1	112	0.00	29.742 
22:30	57.0	57.0	57.0	74	48.8	0	2	112	0.00	29.745 
22:35	56.7	56.7	56.7	75	48.9	0	1	112	0.00	29.745 
22:40	56.5	56.5	56.5	76	49.0	0	1	112	0.00	29.745 
22:45	56.3	56.3	56.3	76	48.8	0	0	---	0.00	29.746 
22:50	56.2	56.2	56.2	77	49.1	0	2	112	0.00	29.746 
22:55	56.0	56.0	56.0	77	48.9	0	2	112	0.00	29.746 
23:00	55.7	55.7	55.7	78	48.9	1	2	112	0.00	29.742 
23:05	55.6	55.6	55.6	78	48.8	1	3	112	0.00	29.742 
23:10	55.3	55.3	55.3	78	48.6	1	6	112	0.00	29.742 
23:15	55.0	55.0	55.0	77	47.9	2	6	112	0.00	29.756 
23:20	54.7	54.7	54.7	76	47.3	2	7	112	0.00	29.756 
23:25	54.2	54.2	54.2	76	46.8	3	11	112	0.00	29.756 
23:30	53.9	53.9	53.9	77	46.9	2	5	112	0.00	29.769 
23:35	53.6	53.6	53.6	77	46.6	2	10	90	0.00	29.769 
23:40	53.3	53.3	53.3	78	46.6	2	5	112	0.00	29.769 
23:45	53.1	53.1	53.1	78	46.4	1	5	90	0.00	29.770 
23:50	52.9	52.9	52.9	79	46.6	2	7	112	0.00	29.770 
23:55	52.6	52.6	52.6	78	45.9	2	5	112	0.00	29.770 

CoCoRaHS
IN-AL-39
A2 Web Hosting
Creative Commons License
GoDaddy
search engine by freefind advanced

loaded 2018-11-17 15:02:55 • last modified 2010-11-18 10:43:29
Privacy PolicyDisclaimer
• wx.awcolley.com is powered by PmWiki v.2002016 •
• all content (unless otherwise noted) © 2018 A W Colley